sensor_id;sensor_type;location;lat;lon;timestamp;P1;durP1;ratioP1;P2;durP2;ratioP2
23236;SDS011;11787;52.018;8.570;2022-10-31T06:04:09;23.73;;;14.20;;
23236;SDS011;11787;52.018;8.570;2022-10-31T06:06:35;23.42;;;15.57;;
23236;SDS011;11787;52.018;8.570;2022-10-31T06:09:00;22.58;;;15.68;;
23236;SDS011;11787;52.018;8.570;2022-10-31T06:11:26;27.33;;;17.88;;
23236;SDS011;11787;52.018;8.570;2022-10-31T06:13:51;24.70;;;15.50;;
23236;SDS011;11787;52.018;8.570;2022-10-31T06:16:17;25.75;;;15.82;;
23236;SDS011;11787;52.018;8.570;2022-10-31T06:18:42;24.02;;;14.63;;
23236;SDS011;11787;52.018;8.570;2022-10-31T06:21:08;23.23;;;15.82;;
23236;SDS011;11787;52.018;8.570;2022-10-31T06:23:33;26.58;;;15.63;;
23236;SDS011;11787;52.018;8.570;2022-10-31T06:25:59;22.48;;;15.25;;
23236;SDS011;11787;52.018;8.570;2022-10-31T06:28:24;22.65;;;14.38;;
23236;SDS011;11787;52.018;8.570;2022-10-31T06:30:50;20.67;;;14.63;;
23236;SDS011;11787;52.018;8.570;2022-10-31T06:36:37;23.83;;;14.73;;
23236;SDS011;11787;52.018;8.570;2022-10-31T06:39:03;25.37;;;15.43;;
23236;SDS011;11787;52.018;8.570;2022-10-31T06:41:28;23.20;;;15.35;;
23236;SDS011;11787;52.018;8.570;2022-10-31T06:43:54;21.60;;;14.40;;
23236;SDS011;11787;52.018;8.570;2022-10-31T06:46:20;24.98;;;14.93;;
23236;SDS011;11787;52.018;8.570;2022-10-31T06:48:45;21.98;;;14.90;;
23236;SDS011;11787;52.018;8.570;2022-10-31T06:51:11;25.92;;;15.13;;
23236;SDS011;11787;52.018;8.570;2022-10-31T06:56:58;19.08;;;14.32;;
23236;SDS011;11787;52.018;8.570;2022-10-31T06:59:24;22.38;;;15.65;;
23236;SDS011;11787;52.018;8.570;2022-10-31T07:01:49;24.77;;;15.60;;
23236;SDS011;11787;52.018;8.570;2022-10-31T07:04:15;21.55;;;14.35;;
23236;SDS011;11787;52.018;8.570;2022-10-31T07:36:45;22.05;;;14.80;;
23236;SDS011;11787;52.018;8.570;2022-10-31T07:39:11;22.45;;;14.88;;
23236;SDS011;11787;52.018;8.570;2022-10-31T07:41:36;25.58;;;17.42;;
23236;SDS011;11787;52.018;8.570;2022-10-31T07:44:02;21.85;;;15.60;;
23236;SDS011;11787;52.018;8.570;2022-10-31T07:46:27;22.42;;;15.60;;
23236;SDS011;11787;52.018;8.570;2022-10-31T07:48:53;24.38;;;18.05;;
23236;SDS011;11787;52.018;8.570;2022-10-31T07:51:19;28.73;;;18.83;;
23236;SDS011;11787;52.018;8.570;2022-10-31T07:53:44;23.90;;;17.40;;
23236;SDS011;11787;52.018;8.570;2022-10-31T07:56:10;26.83;;;18.80;;
23236;SDS011;11787;52.018;8.570;2022-10-31T07:58:35;26.33;;;18.02;;
23236;SDS011;11787;52.018;8.570;2022-10-31T08:01:01;26.77;;;17.90;;
23236;SDS011;11787;52.018;8.570;2022-10-31T08:03:26;45.88;;;29.58;;
23236;SDS011;11787;52.018;8.570;2022-10-31T08:09:14;32.72;;;19.70;;
23236;SDS011;11787;52.018;8.570;2022-10-31T08:11:39;26.67;;;19.48;;
23236;SDS011;11787;52.018;8.570;2022-10-31T08:14:05;27.52;;;19.60;;
23236;SDS011;11787;52.018;8.570;2022-10-31T08:16:31;29.30;;;20.00;;
23236;SDS011;11787;52.018;8.570;2022-10-31T08:22:18;27.60;;;19.35;;
23236;SDS011;11787;52.018;8.570;2022-10-31T08:24:44;29.10;;;19.67;;
23236;SDS011;11787;52.018;8.570;2022-10-31T08:27:09;32.92;;;19.73;;
23236;SDS011;11787;52.018;8.570;2022-10-31T08:29:35;33.80;;;19.27;;
23236;SDS011;11787;52.018;8.570;2022-10-31T08:32:01;29.80;;;19.27;;
23236;SDS011;11787;52.018;8.570;2022-10-31T08:34:26;28.27;;;18.60;;
23236;SDS011;11787;52.018;8.570;2022-10-31T08:36:52;29.15;;;18.95;;
23236;SDS011;11787;52.018;8.570;2022-10-31T08:39:17;27.88;;;19.02;;
23236;SDS011;11787;52.018;8.570;2022-10-31T08:45:05;26.20;;;18.40;;
23236;SDS011;11787;52.018;8.570;2022-10-31T08:47:30;27.35;;;17.88;;
23236;SDS011;11787;52.018;8.570;2022-10-31T08:49:56;28.83;;;17.90;;
23236;SDS011;11787;52.018;8.570;2022-10-31T08:52:22;35.08;;;19.50;;
23236;SDS011;11787;52.018;8.570;2022-10-31T08:54:49;22.93;;;16.80;;
23236;SDS011;11787;52.018;8.570;2022-10-31T09:00:37;24.83;;;17.80;;
23236;SDS011;11787;52.018;8.570;2022-10-31T09:06:24;32.45;;;20.25;;
23236;SDS011;11787;52.018;8.570;2022-10-31T09:08:50;25.73;;;17.95;;
23236;SDS011;11787;52.018;8.570;2022-10-31T09:14:38;28.83;;;19.30;;
23236;SDS011;11787;52.018;8.570;2022-10-31T09:22:32;29.00;;;19.65;;
23236;SDS011;11787;52.018;8.570;2022-10-31T09:24:58;26.98;;;18.27;;
23236;SDS011;11787;52.018;8.570;2022-10-31T09:27:23;33.40;;;18.55;;
23236;SDS011;11787;52.018;8.570;2022-10-31T09:33:11;27.60;;;20.17;;
23236;SDS011;11787;52.018;8.570;2022-10-31T09:35:38;32.75;;;19.80;;
23236;SDS011;11787;52.018;8.570;2022-10-31T09:38:14;29.65;;;20.38;;
23236;SDS011;11787;52.018;8.570;2022-10-31T09:44:07;32.10;;;20.20;;
23236;SDS011;11787;52.018;8.570;2022-10-31T09:57:29;28.90;;;21.20;;
23236;SDS011;11787;52.018;8.570;2022-10-31T09:59:59;28.70;;;20.90;;
23236;SDS011;11787;52.018;8.570;2022-10-31T10:08:49;28.25;;;20.13;;
